UKOO Airport Information

Runway Information
Runway 07 Length 1815 ft width 197 ft
Elevation 0 ft Threshold 0 ft Heading 75
Runway 25 Length 1815 ft Width 197 ft
Elevation 0 ft Threshold 0 ft Heading 255
Runway 16 Length 9183 ft width 184 ft
Elevation 172 ft Threshold 0 ft Heading 163
Runway 34 Length 9183 ft Width 184 ft
Elevation 165 ft Threshold 0 ft Heading 343
Runway 18 Length 2950 ft width 190 ft
Elevation 0 ft Threshold 0 ft Heading 182
Runway 36 Length 2950 ft Width 190 ft
Elevation 0 ft Threshold 0 ft Heading 2
Airport Frequencies
Type APP Name RADAR Frequency 120.9 MHZ
Type ATIS Name ATIS Frequency 124.8 MHZ
Type GND Name GND Frequency 121.8 MHZ
Type TWR Name TWR Frequency 125.5 MHZ
Airport Navaids
Type VOR-DME Name Odesa Frequency 113950 KHZ
Airport Weather Information & NOTAM
ADDS - METARS form results

(0819 UTC 21 April 2019)
Data provider http://aviationweather.gov/metar/data/
 
METAR text: UKOO 210800Z 10005MPS 070V150 CAVOK 14/M01 Q1024 R16/090060 NOSIG
Conditions at: UKOO (ODESSA/TSENTRALN, UA) observed 0800 UTC 21 April 2019
Temperature: 14.0°C (57°F)
Dewpoint: -1.0°C (30°F) [RH = 36%]
Pressure (altimeter): 30.24 inches Hg (1024.0 mb)
Winds: from the E (100 degrees) at 12 MPH (10 knots; 5.1 m/s)
Visibility: 6 or more miles (10+ km)
Ceiling: ceiling and visibility are OK
Clouds: unknown
Weather: no significant weather observed at this time

METAR text: UKOO 210730Z 12005MPS 090V160 CAVOK 14/M04 Q1024 R16/090060 NOSIG
Conditions at: UKOO (ODESSA/TSENTRALN, UA) observed 0730 UTC 21 April 2019
Temperature: 14.0°C (57°F)
Dewpoint: -4.0°C (25°F) [RH = 28%]
Pressure (altimeter): 30.24 inches Hg (1024.0 mb)
Winds: from the ESE (120 degrees) at 12 MPH (10 knots; 5.1 m/s)
Visibility: 6 or more miles (10+ km)
Ceiling: ceiling and visibility are OK
Clouds: unknown
Weather: no significant weather observed at this time

Forecast for: UKOO (ODESSA/TSENTRALN, UA)
Text: TAF UKOO 210508Z 2106/2206 10003MPS 6000 BKN007 SCT020CB TX15/2112Z TN04/2203Z
Forecast period: 0600 to 1600 UTC 21 April 2019
Forecast type: FROM: standard forecast or significant change
Winds: from the E (100 degrees) at 7 MPH (6 knots; 3.1 m/s)
Visibility: 4 miles (6 km)
Ceiling: 700 feet AGL
Clouds: broken clouds at 700 feet AGL
scattered clouds at 2000 feet AGL
Weather: no significant weather forecast for this period
Text: BECMG 2116/2118 15003MPS 2100 BR
Forecast period: 1600 UTC 21 April 2019 to 0600 UTC 22 April 2019
Forecast type: BECOMING: Conditions expected to become as follows by 1800 UTC 21 April 2019
Winds: from the SSE (150 degrees) at 7 MPH (6 knots; 3.1 m/s)
Visibility: 1.30 miles (2.09 km)
Ceiling: 700 feet AGL
Clouds: broken clouds at 700 feet AGL
scattered clouds at 2000 feet AGL
Weather: BR  (mist)